createdAt,value
2019-04-04T00:03:01.782Z,10.11
2019-04-04T00:06:03.735Z,9.98
2019-04-04T00:09:09.046Z,9.99
2019-04-04T00:12:10.949Z,9.99
2019-04-04T00:15:14.765Z,9.90
2019-04-04T00:18:16.870Z,9.89
2019-04-04T00:21:18.870Z,9.83
2019-04-04T00:24:20.989Z,9.75
2019-04-04T00:27:22.997Z,9.68
2019-04-04T00:30:24.907Z,9.67
2019-04-04T00:33:26.850Z,9.66
2019-04-04T00:36:28.802Z,9.64
2019-04-04T00:39:31.785Z,9.60
2019-04-04T00:42:33.760Z,9.53
2019-04-04T00:45:35.671Z,9.52
2019-04-04T00:48:37.715Z,9.44
2019-04-04T00:51:39.669Z,9.41
2019-04-04T00:54:44.640Z,9.41
2019-04-04T00:57:45.673Z,9.42
2019-04-04T01:00:47.627Z,9.41
2019-04-04T01:03:49.554Z,9.43
2019-04-04T01:06:51.511Z,9.41
2019-04-04T01:09:53.427Z,9.39
2019-04-04T01:12:55.404Z,9.38
2019-04-04T01:15:57.311Z,9.35
2019-04-04T01:18:59.629Z,9.30
2019-04-04T01:22:01.560Z,9.19
2019-04-04T01:25:05.473Z,9.07
2019-04-04T01:28:08.121Z,8.95
2019-04-04T01:31:10.749Z,8.90
2019-04-04T01:34:12.674Z,8.89
2019-04-04T01:37:14.637Z,8.84
2019-04-04T01:40:16.779Z,8.85
2019-04-04T01:43:18.720Z,8.84
2019-04-04T01:46:20.687Z,8.84
2019-04-04T01:49:22.669Z,8.87
2019-04-04T01:52:27.734Z,8.88
2019-04-04T01:55:30.505Z,8.85
2019-04-04T01:58:32.456Z,8.82
2019-04-04T02:01:34.391Z,8.73
2019-04-04T02:04:36.364Z,8.66
2019-04-04T02:07:38.317Z,8.59
2019-04-04T02:10:41.474Z,8.57
2019-04-04T02:13:43.447Z,8.53
2019-04-04T02:16:48.511Z,8.50
2019-04-04T02:19:49.353Z,8.51
2019-04-04T02:22:51.652Z,8.52
2019-04-04T02:25:54.663Z,8.50
2019-04-04T02:28:56.604Z,8.45
2019-04-04T02:32:03.076Z,8.45
2019-04-04T02:35:10.306Z,8.41
2019-04-04T02:38:10.923Z,8.41
2019-04-04T02:41:15.539Z,8.37
2019-04-04T02:44:17.110Z,8.36
2019-04-04T02:47:19.087Z,8.31
2019-04-04T02:50:21.085Z,8.27
2019-04-04T02:53:22.995Z,8.21
2019-04-04T02:56:24.915Z,8.14
2019-04-04T02:59:26.861Z,8.15
2019-04-04T03:02:28.864Z,8.20
2019-04-04T03:05:30.924Z,8.24
2019-04-04T03:08:36.550Z,8.20
2019-04-04T03:11:37.748Z,8.15
2019-04-04T03:14:39.663Z,8.08
2019-04-04T03:17:41.665Z,8.06
2019-04-04T03:20:43.810Z,8.05
2019-04-04T03:23:45.780Z,8.08
2019-04-04T03:26:52.298Z,8.11
2019-04-04T03:29:51.545Z,8.12
2019-04-04T03:32:54.967Z,8.12
2019-04-04T03:36:00.130Z,8.10
2019-04-04T03:39:01.401Z,8.09
2019-04-04T03:42:06.959Z,8.08
2019-04-04T03:45:07.336Z,8.08
2019-04-04T03:48:09.260Z,8.08
2019-04-04T03:51:11.275Z,8.08
2019-04-04T03:54:15.147Z,8.08
2019-04-04T03:57:17.355Z,8.03
2019-04-04T04:00:29.541Z,7.99
2019-04-04T04:03:31.574Z,7.95
2019-04-04T04:06:33.516Z,7.89
2019-04-04T04:09:36.838Z,7.89
2019-04-04T04:12:42.599Z,7.91
2019-04-04T04:15:42.728Z,7.90
2019-04-04T04:18:44.686Z,7.91
2019-04-04T04:21:46.802Z,7.90
2019-04-04T04:24:48.715Z,7.85
2019-04-04T04:27:50.784Z,7.79
2019-04-04T04:30:52.828Z,7.77
2019-04-04T04:33:54.926Z,7.66
2019-04-04T04:36:56.876Z,7.63
2019-04-04T04:39:58.838Z,7.56
2019-04-04T04:43:00.999Z,7.50
2019-04-04T04:46:03.115Z,7.53
2019-04-04T04:49:05.060Z,7.52
2019-04-04T04:52:07.080Z,7.51
2019-04-04T04:55:12.018Z,7.52
2019-04-04T04:58:16.105Z,7.58
2019-04-04T05:01:19.031Z,7.69
2019-04-04T05:04:21.385Z,8.07
2019-04-04T05:07:23.491Z,8.88
2019-04-04T05:10:25.525Z,9.65
2019-04-04T05:13:28.869Z,10.29
2019-04-04T05:16:31.428Z,10.82
2019-04-04T05:19:33.423Z,11.36
2019-04-04T05:22:35.674Z,11.80
2019-04-04T05:25:51.673Z,12.19
2019-04-04T05:28:42.119Z,12.65
2019-04-04T05:31:44.759Z,13.15
2019-04-04T05:34:46.700Z,13.60
2019-04-04T05:37:48.720Z,14.15
2019-04-04T05:40:53.260Z,14.49
2019-04-04T05:43:55.906Z,14.88
2019-04-04T05:46:57.817Z,15.37
2019-04-04T05:49:59.785Z,15.66
2019-04-04T05:53:02.117Z,15.96
2019-04-04T05:56:06.419Z,15.90
2019-04-04T05:59:09.041Z,16.11
2019-04-04T06:02:11.418Z,16.51
2019-04-04T06:05:14.111Z,16.71
2019-04-04T06:08:16.095Z,16.93
2019-04-04T06:11:20.847Z,16.84
2019-04-04T06:14:22.004Z,16.86
2019-04-04T06:17:26.924Z,16.91
2019-04-04T06:20:27.841Z,17.02
2019-04-04T06:23:29.915Z,17.13
2019-04-04T06:26:32.003Z,17.10
2019-04-04T06:29:33.983Z,17.35
2019-04-04T06:32:38.707Z,17.33
2019-04-04T06:35:40.127Z,17.43
2019-04-04T06:38:42.396Z,17.31
2019-04-04T06:41:44.376Z,17.62
2019-04-04T06:44:48.041Z,17.68
2019-04-04T06:47:50.044Z,17.80
2019-04-04T06:50:52.009Z,17.84
2019-04-04T06:53:54.554Z,18.09
2019-04-04T06:56:59.062Z,18.16
2019-04-04T07:00:00.664Z,18.39
2019-04-04T07:03:02.658Z,18.74
2019-04-04T07:06:04.633Z,18.81
2019-04-04T07:09:06.851Z,18.73
2019-04-04T07:12:20.336Z,18.72
2019-04-04T07:15:15.723Z,18.88
2019-04-04T07:18:16.755Z,19.24
2019-04-04T07:21:20.192Z,19.09
2019-04-04T07:24:22.705Z,18.87
2019-04-04T07:27:24.727Z,19.15
2019-04-04T07:30:28.424Z,18.92
2019-04-04T07:33:30.661Z,18.98
2019-04-04T07:36:32.652Z,19.00
2019-04-04T07:39:34.587Z,19.04
2019-04-04T07:42:36.511Z,18.84
2019-04-04T07:45:38.479Z,18.93
2019-04-04T07:48:40.469Z,19.06
2019-04-04T07:51:42.432Z,19.26
2019-04-04T07:54:44.489Z,19.08
2019-04-04T07:57:46.430Z,18.97
2019-04-04T08:00:48.954Z,19.21
2019-04-04T08:03:50.994Z,18.85
2019-04-04T08:06:52.913Z,18.81
2019-04-04T08:09:54.964Z,18.84
2019-04-04T08:12:56.974Z,18.43
2019-04-04T08:15:58.919Z,18.13
2019-04-04T08:19:00.878Z,17.99
2019-04-04T08:22:02.978Z,17.86
2019-04-04T08:25:05.259Z,17.55
2019-04-04T08:28:07.192Z,17.40
2019-04-04T08:31:09.928Z,17.42
2019-04-04T08:34:12.276Z,17.54
2019-04-04T08:37:14.252Z,17.59
2019-04-04T08:40:16.227Z,17.51
2019-04-04T08:43:18.275Z,17.50
2019-04-04T08:46:20.348Z,17.54
2019-04-04T08:49:22.479Z,17.56
2019-04-04T08:52:24.390Z,17.38
2019-04-04T08:55:26.481Z,17.46
2019-04-04T08:58:28.391Z,17.39
2019-04-04T09:01:30.757Z,17.46
2019-04-04T09:04:32.727Z,17.49
2019-04-04T09:07:34.714Z,17.47
2019-04-04T09:10:36.741Z,17.34
2019-04-04T09:13:38.750Z,17.37
2019-04-04T09:16:41.733Z,17.45
2019-04-04T09:19:43.733Z,17.37
2019-04-04T09:22:45.668Z,17.49
2019-04-04T09:25:47.806Z,17.49
2019-04-04T09:28:49.797Z,17.47
2019-04-04T09:31:51.677Z,17.43
2019-04-04T09:34:53.681Z,17.60
2019-04-04T09:37:55.636Z,17.57
2019-04-04T09:40:57.672Z,17.71
2019-04-04T09:43:59.674Z,17.87
2019-04-04T09:47:05.721Z,17.69
2019-04-04T09:50:06.783Z,17.72
2019-04-04T09:53:08.748Z,17.82
2019-04-04T09:56:12.011Z,17.92
2019-04-04T09:59:15.067Z,18.10
2019-04-04T10:02:19.924Z,18.34
2019-04-04T10:05:21.884Z,18.27
2019-04-04T10:08:23.917Z,18.09
2019-04-04T10:11:25.880Z,18.10
2019-04-04T10:14:27.809Z,18.24
2019-04-04T10:17:29.764Z,18.27
2019-04-04T10:20:31.747Z,18.51
2019-04-04T10:23:33.709Z,18.54
2019-04-04T10:26:35.846Z,18.55
2019-04-04T10:29:37.877Z,18.68
2019-04-04T10:32:39.895Z,18.82
2019-04-04T10:35:41.906Z,18.88
2019-04-04T10:38:43.860Z,19.13
2019-04-04T10:41:45.752Z,19.10
2019-04-04T10:44:47.779Z,18.91
2019-04-04T10:47:49.713Z,18.88
2019-04-04T10:50:51.723Z,18.73
2019-04-04T10:53:53.677Z,18.83
2019-04-04T10:56:55.719Z,18.93
2019-04-04T10:59:57.681Z,19.04
2019-04-04T11:02:59.913Z,19.04
2019-04-04T11:06:01.802Z,19.05
2019-04-04T11:09:06.434Z,19.02
2019-04-04T11:12:08.407Z,19.19
2019-04-04T11:15:10.364Z,19.31
2019-04-04T11:18:12.312Z,19.34
2019-04-04T11:21:14.556Z,19.53
2019-04-04T11:24:16.746Z,19.66
2019-04-04T11:27:18.895Z,19.85
2019-04-04T11:30:20.947Z,19.95
2019-04-04T11:33:22.894Z,19.71
2019-04-04T11:36:24.894Z,19.86
2019-04-04T11:39:26.850Z,19.94
2019-04-04T11:42:28.870Z,19.92
2019-04-04T11:45:30.850Z,19.95
2019-04-04T11:48:32.890Z,20.08
2019-04-04T11:51:34.816Z,19.95
2019-04-04T11:54:38.688Z,19.90
2019-04-04T11:57:40.730Z,19.82
2019-04-04T12:00:44.566Z,19.59
2019-04-04T12:03:47.179Z,19.79
2019-04-04T12:06:49.184Z,19.90
2019-04-04T12:09:51.110Z,19.91
2019-04-04T12:12:53.055Z,19.96
2019-04-04T12:15:54.957Z,19.77
2019-04-04T12:18:57.011Z,19.74
2019-04-04T12:21:58.914Z,19.66
2019-04-04T12:25:01.479Z,19.77
2019-04-04T12:28:03.630Z,19.92
2019-04-04T12:31:05.650Z,19.93
2019-04-04T12:34:07.605Z,19.92
2019-04-04T12:37:09.563Z,19.84
2019-04-04T12:40:20.403Z,19.94
2019-04-04T12:43:15.554Z,19.92
2019-04-04T12:46:17.534Z,20.35
2019-04-04T12:49:19.500Z,20.42
2019-04-04T12:52:21.728Z,20.42
2019-04-04T12:55:23.727Z,20.24
2019-04-04T12:58:25.771Z,20.24
2019-04-04T13:01:27.761Z,20.31
2019-04-04T13:04:31.871Z,20.18
2019-04-04T13:07:33.562Z,20.14
2019-04-04T13:10:35.565Z,19.96
2019-04-04T13:13:38.338Z,19.96
2019-04-04T13:16:40.950Z,20.12
2019-04-04T13:19:42.864Z,20.36
2019-04-04T13:22:46.153Z,20.47
2019-04-04T13:25:48.125Z,20.38
2019-04-04T13:28:50.263Z,20.44
2019-04-04T13:31:52.253Z,20.36
2019-04-04T13:34:59.492Z,20.36
2019-04-04T13:37:58.172Z,20.44
2019-04-04T13:41:00.141Z,20.49
2019-04-04T13:44:02.118Z,19.77
2019-04-04T13:47:04.343Z,19.72
2019-04-04T13:50:08.095Z,19.72
2019-04-04T13:53:10.169Z,19.73
2019-04-04T13:56:12.171Z,19.87
2019-04-04T13:59:14.198Z,20.19
2019-04-04T14:02:16.180Z,20.29
2019-04-04T14:05:18.168Z,20.25
2019-04-04T14:08:20.155Z,20.25
2019-04-04T14:11:22.171Z,20.31
2019-04-04T14:14:24.127Z,20.40
2019-04-04T14:17:26.813Z,20.39
2019-04-04T14:20:28.774Z,20.44
2019-04-04T14:23:30.775Z,20.58
2019-04-04T14:26:32.743Z,20.58
2019-04-04T14:29:36.252Z,20.42
2019-04-04T14:32:38.251Z,20.42
2019-04-04T14:35:40.504Z,20.56
2019-04-04T14:38:42.577Z,20.61
2019-04-04T14:41:44.530Z,20.61
2019-04-04T14:44:46.536Z,20.44
2019-04-04T14:47:48.536Z,20.54
2019-04-04T14:50:50.507Z,20.58
2019-04-04T14:53:52.530Z,20.74
2019-04-04T14:56:54.449Z,20.67
2019-04-04T14:59:56.540Z,20.79
2019-04-04T15:02:58.436Z,20.87
2019-04-04T15:06:00.463Z,20.77
2019-04-04T15:09:04.775Z,20.65
2019-04-04T15:12:07.030Z,20.53
2019-04-04T15:15:08.996Z,20.51
2019-04-04T15:18:11.030Z,20.44
2019-04-04T15:21:13.974Z,20.37
2019-04-04T15:24:16.084Z,20.36
2019-04-04T15:27:18.115Z,20.42
2019-04-04T15:30:20.883Z,20.44
2019-04-04T15:33:22.830Z,20.44
2019-04-04T15:36:24.850Z,20.39
2019-04-04T15:39:26.832Z,20.40
2019-04-04T15:42:28.887Z,20.18
2019-04-04T15:45:30.839Z,20.09
2019-04-04T15:48:32.873Z,20.09
2019-04-04T15:51:34.857Z,20.11
2019-04-04T15:54:36.899Z,20.15
2019-04-04T15:57:38.851Z,20.08
2019-04-04T16:00:40.939Z,19.89
2019-04-04T16:03:42.849Z,19.92
2019-04-04T16:06:44.829Z,19.81
2019-04-04T16:09:46.755Z,19.72
2019-04-04T16:12:48.768Z,19.71
2019-04-04T16:15:50.727Z,19.65
2019-04-04T16:18:52.728Z,19.70
2019-04-04T16:21:54.642Z,19.66
2019-04-04T16:24:56.654Z,19.52
2019-04-04T16:27:58.598Z,19.46
2019-04-04T16:31:00.812Z,19.38
2019-04-04T16:34:02.733Z,19.28
2019-04-04T16:37:04.770Z,19.15
2019-04-04T16:40:09.289Z,19.15
2019-04-04T16:43:11.767Z,19.05
2019-04-04T16:46:13.695Z,19.00
2019-04-04T16:49:15.689Z,18.91
2019-04-04T16:52:17.631Z,18.76
2019-04-04T16:55:19.644Z,18.63
2019-04-04T16:58:21.572Z,18.49
2019-04-04T17:01:23.610Z,18.38
2019-04-04T17:04:25.641Z,18.14
2019-04-04T17:07:27.611Z,17.99
2019-04-04T17:10:31.518Z,17.88
2019-04-04T17:13:33.484Z,17.68
2019-04-04T17:16:35.464Z,17.60
2019-04-04T17:19:37.444Z,17.54
2019-04-04T17:22:41.183Z,17.49
2019-04-04T17:25:43.519Z,17.45
2019-04-04T17:28:45.766Z,17.41
2019-04-04T17:31:50.284Z,17.33
2019-04-04T17:34:52.613Z,17.22
2019-04-04T17:37:54.609Z,17.07
2019-04-04T17:40:56.971Z,16.75
2019-04-04T17:43:59.101Z,16.50
2019-04-04T17:47:02.126Z,16.35
2019-04-04T17:50:08.955Z,16.29
2019-04-04T17:53:10.994Z,16.16
2019-04-04T17:56:13.357Z,16.12
2019-04-04T17:59:16.838Z,16.03
2019-04-04T18:02:18.983Z,15.85
2019-04-04T18:05:22.536Z,15.70
2019-04-04T18:08:25.899Z,15.63
2019-04-04T18:11:27.859Z,15.66
2019-04-04T18:14:33.802Z,15.76
2019-04-04T18:17:37.182Z,15.87
2019-04-04T18:20:41.382Z,15.98
2019-04-04T18:23:43.377Z,16.05
2019-04-04T18:26:46.434Z,16.06
2019-04-04T18:29:48.654Z,16.07
2019-04-04T18:32:53.342Z,16.03
2019-04-04T18:35:55.828Z,15.93
2019-04-04T18:38:57.803Z,15.64
2019-04-04T18:41:59.786Z,15.19
2019-04-04T18:45:06.118Z,14.91
2019-04-04T18:48:09.910Z,14.78
2019-04-04T18:51:12.784Z,14.59
2019-04-04T18:54:14.750Z,14.49
2019-04-04T18:57:17.324Z,14.35
2019-04-04T19:00:22.990Z,14.26
2019-04-04T19:03:29.577Z,14.21
2019-04-04T19:06:31.426Z,14.24
2019-04-04T19:09:33.783Z,14.29
2019-04-04T19:12:40.679Z,14.35
2019-04-04T19:15:44.633Z,14.46
2019-04-04T19:18:48.941Z,14.64
2019-04-04T19:21:52.814Z,14.81
2019-04-04T19:24:56.953Z,14.91
2019-04-04T19:28:01.931Z,14.96
2019-04-04T19:31:05.951Z,15.04
2019-04-04T19:34:08.411Z,15.05
2019-04-04T19:37:10.432Z,14.97
2019-04-04T19:40:13.915Z,14.89
2019-04-04T19:43:18.155Z,14.78
2019-04-04T19:46:19.866Z,14.70
2019-04-04T19:49:22.399Z,14.62
2019-04-04T19:52:24.961Z,14.64
2019-04-04T19:55:27.050Z,14.69
2019-04-04T19:58:29.432Z,14.78
2019-04-04T20:01:31.531Z,14.87
2019-04-04T20:04:37.024Z,14.94
2019-04-04T20:07:40.122Z,15.02
2019-04-04T20:10:43.373Z,15.10
2019-04-04T20:13:45.348Z,15.13
2019-04-04T20:16:47.906Z,15.16
2019-04-04T20:19:49.874Z,15.15
2019-04-04T20:22:51.826Z,15.13
2019-04-04T20:25:54.358Z,15.11
2019-04-04T20:28:56.313Z,15.05
2019-04-04T20:31:58.320Z,14.98
2019-04-04T20:35:00.411Z,14.91
2019-04-04T20:38:04.097Z,14.69
2019-04-04T20:41:07.887Z,14.40
2019-04-04T20:44:09.865Z,14.26
2019-04-04T20:47:11.895Z,14.13
2019-04-04T20:50:13.789Z,14.04
2019-04-04T20:53:15.760Z,13.97
2019-04-04T20:56:17.735Z,13.92
2019-04-04T20:59:19.740Z,13.93
2019-04-04T21:02:21.643Z,13.87
2019-04-04T21:05:23.787Z,13.88
2019-04-04T21:08:25.779Z,13.83
2019-04-04T21:11:28.710Z,13.81
2019-04-04T21:14:30.644Z,13.71
2019-04-04T21:17:32.666Z,13.62
2019-04-04T21:20:34.579Z,13.48
2019-04-04T21:23:36.602Z,13.35
2019-04-04T21:26:39.627Z,13.22
2019-04-04T21:29:41.678Z,13.10
2019-04-04T21:32:43.575Z,13.01
2019-04-04T21:35:45.716Z,12.97
2019-04-04T21:38:47.652Z,12.95
2019-04-04T21:41:50.984Z,12.93
2019-04-04T21:44:53.006Z,12.86
2019-04-04T21:47:55.031Z,12.76
2019-04-04T21:50:56.960Z,12.66
2019-04-04T21:53:58.882Z,12.49
2019-04-04T21:57:00.794Z,12.35
2019-04-04T22:00:06.195Z,12.20
2019-04-04T22:03:09.954Z,12.09
2019-04-04T22:06:11.979Z,11.92
2019-04-04T22:09:15.711Z,11.80
2019-04-04T22:12:17.808Z,11.71
2019-04-04T22:15:19.795Z,11.63
2019-04-04T22:18:21.832Z,11.60
2019-04-04T22:21:23.782Z,11.57
2019-04-04T22:24:25.750Z,11.51
2019-04-04T22:27:27.739Z,11.47
2019-04-04T22:30:29.746Z,11.44
2019-04-04T22:33:31.707Z,11.42
2019-04-04T22:36:33.859Z,11.43
2019-04-04T22:39:35.834Z,11.44
2019-04-04T22:42:37.871Z,11.39
2019-04-04T22:45:39.910Z,11.39
2019-04-04T22:48:41.931Z,11.40
2019-04-04T22:51:43.866Z,11.44
2019-04-04T22:54:45.911Z,11.54
2019-04-04T22:57:47.831Z,11.58
2019-04-04T23:00:49.878Z,11.65
2019-04-04T23:03:51.792Z,11.71
2019-04-04T23:06:53.904Z,11.68
2019-04-04T23:09:55.821Z,11.60
2019-04-04T23:12:57.747Z,11.54
2019-04-04T23:15:59.713Z,11.54
2019-04-04T23:19:01.722Z,11.54
2019-04-04T23:22:03.679Z,11.53
2019-04-04T23:25:08.761Z,11.50
2019-04-04T23:28:11.618Z,11.48
2019-04-04T23:31:13.633Z,11.45
2019-04-04T23:34:15.555Z,11.47
2019-04-04T23:37:17.761Z,11.47
2019-04-04T23:40:19.666Z,11.45
2019-04-04T23:43:21.672Z,11.47
2019-04-04T23:46:23.627Z,11.46
2019-04-04T23:49:25.591Z,11.44
2019-04-04T23:52:27.642Z,11.47
2019-04-04T23:55:29.636Z,11.47
2019-04-04T23:58:31.556Z,11.46
